createdAt,value
2022-08-23T00:02:29.390Z,97920.63
2022-08-23T00:05:08.995Z,97922.69
2022-08-23T00:07:40.971Z,97923.00
2022-08-23T00:10:12.516Z,97914.50
2022-08-23T00:12:42.681Z,97915.31
2022-08-23T00:15:18.201Z,97906.88
2022-08-23T00:17:48.916Z,97899.91
2022-08-23T00:20:20.914Z,97909.88
2022-08-23T00:22:49.429Z,97907.63
2022-08-23T00:25:18.240Z,97906.53
2022-08-23T00:27:47.457Z,97906.53
2022-08-23T00:30:17.766Z,97914.09
2022-08-23T00:32:48.246Z,97911.84
2022-08-23T00:35:27.147Z,97904.63
2022-08-23T00:38:31.671Z,97911.03
2022-08-23T00:40:51.299Z,97909.94
2022-08-23T00:43:44.373Z,97912.84
2022-08-23T00:46:46.608Z,97914.25
2022-08-23T00:49:19.018Z,97920.53
2022-08-23T00:51:57.521Z,97918.47
2022-08-23T00:54:29.961Z,97913.16
2022-08-23T00:57:05.484Z,97912.84
2022-08-23T00:59:34.633Z,97919.50
2022-08-23T01:02:05.171Z,97922.38
2022-08-23T01:04:42.817Z,97916.22
2022-08-23T01:07:21.156Z,97919.72
2022-08-23T01:09:53.148Z,97917.78
2022-08-23T01:12:33.122Z,97917.44
2022-08-23T01:15:08.573Z,97917.84
2022-08-23T01:17:44.203Z,97914.31
2022-08-23T01:20:19.614Z,97915.44
2022-08-23T01:22:58.489Z,97920.84
2022-08-23T01:25:32.488Z,97924.75
2022-08-23T01:28:01.485Z,97927.06
2022-08-23T01:30:34.420Z,97927.53
2022-08-23T01:33:07.260Z,97931.72
2022-08-23T01:35:41.768Z,97934.28
2022-08-23T01:38:13.269Z,97943.72
2022-08-23T01:40:44.914Z,97956.06
2022-08-23T01:43:15.357Z,97945.78
2022-08-23T01:45:44.737Z,97946.34
2022-08-23T01:48:15.051Z,97944.03
2022-08-23T01:50:44.003Z,97936.50
2022-08-23T01:53:13.210Z,97942.50
2022-08-23T01:55:45.511Z,97940.25
2022-08-23T01:58:15.092Z,97948.19
2022-08-23T02:00:45.594Z,97944.19
2022-08-23T02:03:14.238Z,97935.78
2022-08-23T02:05:44.190Z,97940.59
2022-08-23T02:08:30.612Z,97942.88
2022-08-23T02:11:01.433Z,97939.69
2022-08-23T02:13:29.986Z,97939.94
2022-08-23T02:15:59.970Z,97933.00
2022-08-23T02:18:28.551Z,97937.81
2022-08-23T02:20:57.955Z,97946.44
2022-08-23T02:23:27.779Z,97949.66
2022-08-23T02:25:57.256Z,97942.31
2022-08-23T02:28:27.655Z,97953.69
2022-08-23T02:30:56.143Z,97955.09
2022-08-23T02:33:25.273Z,97958.19
2022-08-23T02:35:53.851Z,97959.81
2022-08-23T02:38:22.377Z,97957.53
2022-08-23T02:40:52.766Z,97965.13
2022-08-23T02:43:30.822Z,97962.81
2022-08-23T02:45:59.947Z,97964.41
2022-08-23T02:48:32.472Z,97959.69
2022-08-23T02:51:07.953Z,97962.47
2022-08-23T02:53:37.143Z,97966.81
2022-08-23T02:56:21.607Z,97965.00
2022-08-23T02:58:54.589Z,97965.13
2022-08-23T03:01:29.960Z,97971.53
2022-08-23T03:04:00.201Z,97974.63
2022-08-23T03:06:30.107Z,97977.53
2022-08-23T03:08:59.603Z,97964.78
2022-08-23T03:11:30.878Z,97970.28
2022-08-23T03:14:01.888Z,97971.09
2022-08-23T03:16:31.040Z,97975.56
2022-08-23T03:19:02.241Z,97974.66
2022-08-23T03:21:31.299Z,97972.03
2022-08-23T03:24:01.238Z,97978.19
2022-08-23T03:26:30.095Z,97979.81
2022-08-23T03:29:01.387Z,97981.91
2022-08-23T03:31:31.000Z,97982.81
2022-08-23T03:34:00.370Z,97979.94
2022-08-23T03:36:29.225Z,97977.28
2022-08-23T03:39:00.695Z,97980.88
2022-08-23T03:41:29.349Z,97979.03
2022-08-23T03:43:58.112Z,97979.25
2022-08-23T03:46:33.901Z,97979.25
2022-08-23T03:49:05.264Z,97980.53
2022-08-23T03:51:35.622Z,97984.19
2022-08-23T03:54:04.458Z,97987.84
2022-08-23T03:56:38.094Z,97986.94
2022-08-23T03:59:12.234Z,97994.88
2022-08-23T04:01:42.566Z,97996.13
2022-08-23T04:04:11.894Z,98001.28
2022-08-23T04:06:41.157Z,97998.66
2022-08-23T04:09:09.677Z,97997.03
2022-08-23T04:11:39.762Z,98003.47
2022-08-23T04:14:09.244Z,98007.59
2022-08-23T04:16:39.082Z,98001.75
2022-08-23T04:19:13.935Z,98009.09
2022-08-23T04:21:49.283Z,98011.75
2022-08-23T04:24:19.148Z,98015.41
2022-08-23T04:26:49.631Z,98014.03
2022-08-23T04:29:33.479Z,98016.75
2022-08-23T04:32:05.541Z,98025.28
2022-08-23T04:34:40.039Z,98027.56
2022-08-23T04:37:09.633Z,98024.28
2022-08-23T04:39:52.823Z,98025.19
2022-08-23T04:42:23.444Z,98028.03
2022-08-23T04:44:52.576Z,98034.22
2022-08-23T04:47:21.539Z,98039.34
2022-08-23T04:49:51.417Z,98034.88
2022-08-23T04:52:20.146Z,98052.19
2022-08-23T04:54:49.726Z,98048.53
2022-08-23T04:57:18.260Z,98047.66
2022-08-23T04:59:47.304Z,98047.16
2022-08-23T05:02:15.853Z,98044.03
2022-08-23T05:04:44.631Z,98047.63
2022-08-23T05:07:15.652Z,98055.38
2022-08-23T05:09:44.168Z,98058.97
2022-08-23T05:12:12.819Z,98068.72
2022-08-23T05:14:41.441Z,98062.19
2022-08-23T05:17:16.446Z,98068.56
2022-08-23T05:19:47.245Z,98068.38
2022-08-23T05:22:17.286Z,98074.00
2022-08-23T05:24:45.866Z,98074.38
2022-08-23T05:27:15.699Z,98071.03
2022-08-23T05:29:44.247Z,98074.03
2022-08-23T05:32:13.265Z,98075.38
2022-08-23T05:34:42.793Z,98079.38
2022-08-23T05:37:11.909Z,98082.97
2022-08-23T05:39:43.061Z,98085.75
2022-08-23T05:42:17.053Z,98090.13
2022-08-23T05:44:46.553Z,98094.19
2022-08-23T05:47:17.543Z,98087.22
2022-08-23T05:49:53.234Z,98081.47
2022-08-23T05:52:22.036Z,98091.59
2022-08-23T05:54:51.952Z,98100.13
2022-08-23T05:57:20.561Z,98094.47
2022-08-23T05:59:49.343Z,98092.50
2022-08-23T06:02:17.910Z,98097.38
2022-08-23T06:04:46.495Z,98096.75
2022-08-23T06:07:16.757Z,98094.25
2022-08-23T06:09:45.325Z,98101.72
2022-08-23T06:12:16.171Z,98102.66
2022-08-23T06:14:45.277Z,98103.22
2022-08-23T06:17:14.336Z,98102.78
2022-08-23T06:19:42.917Z,98111.66
2022-08-23T06:22:11.674Z,98101.44
2022-08-23T06:24:40.227Z,98108.31
2022-08-23T06:27:08.762Z,98113.97
2022-08-23T06:29:39.944Z,98098.25
2022-08-23T06:32:08.725Z,98103.44
2022-08-23T06:34:39.294Z,98102.31
2022-08-23T06:37:13.745Z,98104.59
2022-08-23T06:39:43.659Z,98112.66
2022-08-23T06:42:37.920Z,98108.63
2022-08-23T06:45:07.458Z,98106.69
2022-08-23T06:47:35.974Z,98113.13
2022-08-23T06:50:05.983Z,98112.47
2022-08-23T06:52:34.546Z,98110.97
2022-08-23T06:55:04.192Z,98110.88
2022-08-23T06:57:33.471Z,98108.34
2022-08-23T07:00:01.992Z,98108.22
2022-08-23T07:02:32.513Z,98112.63
2022-08-23T07:05:01.161Z,98107.19
2022-08-23T07:07:41.147Z,98104.66
2022-08-23T07:10:13.643Z,98104.31
2022-08-23T07:12:43.278Z,98106.81
2022-08-23T07:15:13.658Z,98101.41
2022-08-23T07:17:43.988Z,98107.38
2022-08-23T07:20:12.653Z,98102.75
2022-08-23T07:22:42.295Z,98108.72
2022-08-23T07:25:11.510Z,98105.72
2022-08-23T07:27:40.238Z,98105.56
2022-08-23T07:30:11.001Z,98105.47
2022-08-23T07:32:41.230Z,98110.88
2022-08-23T07:35:11.923Z,98119.00
2022-08-23T07:37:41.170Z,98118.03
2022-08-23T07:40:20.747Z,98115.03
2022-08-23T07:42:49.704Z,98116.72
2022-08-23T07:45:19.096Z,98118.19
2022-08-23T07:47:51.782Z,98120.69
2022-08-23T07:50:23.260Z,98109.91
2022-08-23T07:52:51.909Z,98109.75
2022-08-23T07:55:22.469Z,98107.97
2022-08-23T07:57:51.744Z,98116.59
2022-08-23T08:00:20.596Z,98123.34
2022-08-23T08:02:49.763Z,98124.03
2022-08-23T08:05:21.855Z,98119.34
2022-08-23T08:07:51.153Z,98122.66
2022-08-23T08:10:20.885Z,98118.78
2022-08-23T08:12:50.054Z,98120.22
2022-08-23T08:15:18.783Z,98119.81
2022-08-23T08:17:49.235Z,98123.09
2022-08-23T08:20:18.364Z,98126.13
2022-08-23T08:22:56.421Z,98111.66
2022-08-23T08:25:29.925Z,98120.25
2022-08-23T08:28:00.786Z,98120.88
2022-08-23T08:30:30.503Z,98129.19
2022-08-23T08:32:59.277Z,98124.03
2022-08-23T08:35:28.444Z,98128.41
2022-08-23T08:37:58.521Z,98117.59
2022-08-23T08:40:40.098Z,98122.22
2022-08-23T08:43:31.729Z,98117.81
2022-08-23T08:46:10.211Z,98107.28
2022-08-23T08:48:47.270Z,98115.91
2022-08-23T08:51:39.095Z,98114.16
2022-08-23T08:54:16.973Z,98112.41
2022-08-23T08:56:54.025Z,98108.78
2022-08-23T08:59:28.904Z,98112.59
2022-08-23T09:01:59.615Z,98111.84
2022-08-23T09:04:28.362Z,98111.69
2022-08-23T09:07:09.931Z,98100.56
2022-08-23T09:10:18.123Z,98109.66
2022-08-23T09:13:03.662Z,98112.38
2022-08-23T09:15:42.783Z,98112.47
2022-08-23T09:18:15.787Z,98113.84
2022-08-23T09:20:49.069Z,98108.28
2022-08-23T09:23:24.491Z,98114.72
2022-08-23T09:26:03.538Z,98108.88
2022-08-23T09:28:37.683Z,98100.94
2022-08-23T09:31:08.331Z,98106.56
2022-08-23T09:33:45.970Z,98106.31
2022-08-23T09:36:23.634Z,98107.47
2022-08-23T09:38:55.048Z,98100.56
2022-08-23T09:41:29.424Z,98102.97
2022-08-23T09:44:02.017Z,98100.59
2022-08-23T09:46:39.056Z,98097.41
2022-08-23T09:49:30.039Z,98096.03
2022-08-23T09:52:03.427Z,98100.88
2022-08-23T09:54:36.314Z,98102.19
2022-08-23T09:57:10.821Z,98103.25
2022-08-23T09:59:44.797Z,98096.63
2022-08-23T10:02:27.145Z,98092.31
2022-08-23T10:05:06.643Z,98088.59
2022-08-23T10:07:42.615Z,98089.88
2022-08-23T10:10:32.321Z,98094.16
2022-08-23T10:13:04.678Z,98096.75
2022-08-23T10:15:55.176Z,98091.94
2022-08-23T10:18:47.699Z,98099.38
2022-08-23T10:21:24.528Z,98092.94
2022-08-23T10:24:15.950Z,98088.88
2022-08-23T10:27:03.791Z,98082.72
2022-08-23T10:29:41.196Z,98081.09
2022-08-23T10:32:27.406Z,98084.28
2022-08-23T10:35:19.531Z,98083.72
2022-08-23T10:38:05.041Z,98081.31
2022-08-23T10:40:44.004Z,98077.00
2022-08-23T10:43:26.766Z,98077.00
2022-08-23T10:46:01.847Z,98076.13
2022-08-23T10:48:37.556Z,98074.75
2022-08-23T10:51:31.262Z,98073.41
2022-08-23T10:54:07.613Z,98068.53
2022-08-23T10:56:42.957Z,98067.34
2022-08-23T10:59:24.505Z,98067.25
2022-08-23T11:02:20.246Z,98065.06
2022-08-23T11:05:02.724Z,98061.22
2022-08-23T11:07:35.396Z,98059.00
2022-08-23T11:10:17.262Z,98057.34
2022-08-23T11:12:59.312Z,98053.75
2022-08-23T11:15:44.505Z,98061.47
2022-08-23T11:18:43.001Z,98050.91
2022-08-23T11:21:49.025Z,98063.34
2022-08-23T11:24:55.217Z,98053.03
2022-08-23T11:27:37.609Z,98051.66
2022-08-23T11:30:46.685Z,98059.09
2022-08-23T11:33:26.696Z,98045.22
2022-08-23T11:36:18.059Z,98054.25
2022-08-23T11:39:12.948Z,98050.38
2022-08-23T11:42:07.115Z,98051.84
2022-08-23T11:44:48.427Z,98051.72
2022-08-23T11:47:27.334Z,98039.53
2022-08-23T11:50:28.878Z,98044.75
2022-08-23T11:53:26.604Z,98040.63
2022-08-23T11:56:23.869Z,98037.31
2022-08-23T11:59:24.963Z,98037.75
2022-08-23T12:01:54.570Z,98039.06
2022-08-23T12:04:43.405Z,98039.75
2022-08-23T12:07:13.940Z,98034.91
2022-08-23T12:09:57.631Z,98042.59
2022-08-23T12:12:36.167Z,98028.56
2022-08-23T12:15:12.100Z,98029.28
2022-08-23T12:18:13.625Z,98032.16
2022-08-23T12:20:45.796Z,98024.31
2022-08-23T12:23:22.997Z,98029.41
2022-08-23T12:26:22.788Z,98028.81
2022-08-23T12:29:03.890Z,98023.94
2022-08-23T12:31:45.408Z,98031.91
2022-08-23T12:34:26.547Z,98034.50
2022-08-23T12:37:11.790Z,98030.13
2022-08-23T12:39:55.126Z,98034.38
2022-08-23T12:42:31.078Z,98035.75
2022-08-23T12:45:14.505Z,98030.78
2022-08-23T12:47:45.453Z,98024.81
2022-08-23T12:50:32.593Z,98031.72
2022-08-23T12:53:07.277Z,98036.97
2022-08-23T12:55:41.647Z,98032.31
2022-08-23T12:58:12.412Z,98035.19
2022-08-23T13:00:51.543Z,98032.19
2022-08-23T13:03:27.958Z,98026.22
2022-08-23T13:06:02.023Z,98025.03
2022-08-23T13:08:39.745Z,98021.75
2022-08-23T13:11:13.016Z,98016.03
2022-08-23T13:13:45.176Z,98018.34
2022-08-23T13:16:43.126Z,98025.06
2022-08-23T13:19:22.383Z,98023.72
2022-08-23T13:22:14.984Z,98023.91
2022-08-23T13:24:47.655Z,98028.09
2022-08-23T13:27:24.276Z,98016.22
2022-08-23T13:29:57.438Z,98026.03
2022-08-23T13:32:46.915Z,98017.03
2022-08-23T13:35:39.078Z,98011.84
2022-08-23T13:38:21.711Z,98029.16
2022-08-23T13:41:02.090Z,98024.25
2022-08-23T13:43:40.852Z,98027.94
2022-08-23T13:46:18.121Z,98021.66
2022-08-23T13:48:58.760Z,98022.50
2022-08-23T13:51:31.947Z,98016.84
2022-08-23T13:54:05.056Z,98024.63
2022-08-23T13:56:41.712Z,98024.34
2022-08-23T13:59:31.953Z,98021.22
2022-08-23T14:02:02.608Z,98023.25
2022-08-23T14:04:31.398Z,98028.50
2022-08-23T14:07:00.080Z,98026.50
2022-08-23T14:09:28.716Z,98023.78
2022-08-23T14:12:03.891Z,98024.47
2022-08-23T14:14:37.217Z,98016.28
2022-08-23T14:17:12.787Z,98016.63
2022-08-23T14:22:31.935Z,98022.69
2022-08-23T14:25:01.190Z,98020.97
2022-08-23T14:27:30.000Z,98018.94
2022-08-23T14:30:00.076Z,98021.81
2022-08-23T14:32:28.744Z,98016.13
2022-08-23T14:34:57.396Z,98022.13
2022-08-23T14:40:15.408Z,98022.69
2022-08-23T14:42:45.672Z,98020.78
2022-08-23T14:45:17.944Z,98015.38
2022-08-23T14:47:46.947Z,98020.19
2022-08-23T14:50:16.268Z,98010.84
2022-08-23T14:52:48.253Z,98011.84
2022-08-23T14:55:19.429Z,98018.53
2022-08-23T14:57:51.681Z,98015.88
2022-08-23T15:00:21.941Z,98013.06
2022-08-23T15:02:51.278Z,98003.03
2022-08-23T15:05:20.029Z,98010.66
2022-08-23T15:07:48.597Z,98008.25
2022-08-23T15:13:22.097Z,98011.00
2022-08-23T15:15:56.235Z,98000.41
2022-08-23T15:18:24.851Z,97999.31
2022-08-23T15:20:53.417Z,97999.84
2022-08-23T15:23:22.272Z,97995.13
2022-08-23T15:25:52.217Z,97994.00
2022-08-23T15:28:24.872Z,97998.00
2022-08-23T15:30:55.403Z,97997.06
2022-08-23T15:33:30.720Z,97991.19
2022-08-23T15:36:01.847Z,97993.13
2022-08-23T15:38:33.178Z,97999.31
2022-08-23T15:41:02.478Z,97997.25
2022-08-23T15:43:35.390Z,97997.91
2022-08-23T15:46:14.245Z,97997.91
2022-08-23T15:48:48.715Z,97997.91
2022-08-23T15:51:19.599Z,97996.75
2022-08-23T15:53:48.664Z,97993.13
2022-08-23T15:56:23.666Z,97995.19
2022-08-23T15:58:56.077Z,97996.59
2022-08-23T16:01:28.874Z,97998.38
2022-08-23T16:03:58.643Z,97989.59
2022-08-23T16:06:29.310Z,97985.78
2022-08-23T16:08:59.895Z,97986.44
2022-08-23T16:11:28.515Z,97990.88
2022-08-23T16:13:57.562Z,97990.38
2022-08-23T16:16:32.180Z,97994.84
2022-08-23T16:19:01.775Z,98000.03
2022-08-23T16:21:32.257Z,97994.81
2022-08-23T16:24:01.472Z,97997.78
2022-08-23T16:26:35.670Z,97994.78
2022-08-23T16:29:07.529Z,98001.59
2022-08-23T16:31:39.931Z,98004.09
2022-08-23T16:34:13.612Z,97998.84
2022-08-23T16:36:45.572Z,98004.69
2022-08-23T16:39:16.925Z,98001.91
2022-08-23T16:41:45.634Z,98010.47
2022-08-23T16:44:14.365Z,98008.09
2022-08-23T16:46:44.935Z,98008.41
2022-08-23T16:49:16.375Z,98012.69
2022-08-23T16:51:45.720Z,98011.72
2022-08-23T16:54:14.593Z,98009.13
2022-08-23T16:56:43.897Z,98010.38
2022-08-23T16:59:15.134Z,98011.81
2022-08-23T17:01:52.227Z,98011.63
2022-08-23T17:04:25.415Z,98004.97
2022-08-23T17:07:00.144Z,98011.28
2022-08-23T17:09:30.279Z,98008.25
2022-08-23T17:12:00.140Z,98014.25
2022-08-23T17:14:28.980Z,98009.00
2022-08-23T17:17:00.942Z,98007.06
2022-08-23T17:19:29.629Z,98022.25
2022-08-23T17:21:58.688Z,98013.19
2022-08-23T17:24:27.245Z,98017.69
2022-08-23T17:26:56.842Z,98020.53
2022-08-23T17:29:25.757Z,98026.38
2022-08-23T17:31:54.428Z,98020.72
2022-08-23T17:34:24.441Z,98021.47
2022-08-23T17:36:56.448Z,98019.78
2022-08-23T17:39:29.686Z,98030.19
2022-08-23T17:41:59.795Z,98023.94
2022-08-23T17:44:28.461Z,98028.44
2022-08-23T17:46:57.317Z,98033.13
2022-08-23T17:49:27.361Z,98038.94
2022-08-23T17:51:56.070Z,98043.94
2022-08-23T17:54:24.647Z,98045.16
2022-08-23T17:56:53.660Z,98043.94
2022-08-23T17:59:23.182Z,98045.97
2022-08-23T18:01:52.099Z,98050.34
2022-08-23T18:04:21.375Z,98049.72
2022-08-23T18:06:51.494Z,98058.69
2022-08-23T18:09:20.802Z,98058.28
2022-08-23T18:11:49.318Z,98063.16
2022-08-23T18:14:17.930Z,98062.44
2022-08-23T18:16:47.047Z,98061.94
2022-08-23T18:19:15.731Z,98068.59
2022-08-23T18:21:45.488Z,98070.28
2022-08-23T18:24:15.995Z,98073.13
2022-08-23T18:27:02.595Z,98076.56
2022-08-23T18:29:34.311Z,98077.19
2022-08-23T18:32:04.346Z,98076.25
2022-08-23T18:34:33.642Z,98096.50
2022-08-23T18:37:02.790Z,98086.38
2022-08-23T18:39:32.896Z,98093.13
2022-08-23T18:42:04.314Z,98091.91
2022-08-23T18:44:33.702Z,98098.44
2022-08-23T18:47:04.853Z,98101.13
2022-08-23T18:49:34.503Z,98106.25
2022-08-23T18:52:07.000Z,98105.53
2022-08-23T18:54:38.552Z,98107.84
2022-08-23T18:57:07.556Z,98112.16
2022-08-23T18:59:44.729Z,98113.91
2022-08-23T19:02:13.525Z,98111.09
2022-08-23T19:04:42.173Z,98117.59
2022-08-23T19:07:11.865Z,98123.34
2022-08-23T19:09:41.852Z,98128.25
2022-08-23T19:12:10.849Z,98120.28
2022-08-23T19:14:39.453Z,98127.31
2022-08-23T19:17:09.398Z,98136.47
2022-08-23T19:19:38.276Z,98141.41
2022-08-23T19:22:07.080Z,98143.66
2022-08-23T19:24:35.651Z,98142.09
2022-08-23T19:27:06.396Z,98144.28
2022-08-23T19:29:35.238Z,98149.16
2022-08-23T19:32:04.811Z,98155.09
2022-08-23T19:34:33.547Z,98153.09
2022-08-23T19:37:02.177Z,98148.31
2022-08-23T19:39:31.455Z,98148.84
2022-08-23T19:42:00.103Z,98154.19
2022-08-23T19:44:32.733Z,98160.38
2022-08-23T19:47:01.565Z,98160.66
2022-08-23T19:49:31.182Z,98163.84
2022-08-23T19:52:00.295Z,98166.31
2022-08-23T19:54:29.070Z,98166.06
2022-08-23T19:57:03.025Z,98164.72
2022-08-23T19:59:36.607Z,98167.69
2022-08-23T20:02:05.578Z,98180.09
2022-08-23T20:04:35.370Z,98177.97
2022-08-23T20:07:05.686Z,98187.59
2022-08-23T20:09:36.299Z,98183.84
2022-08-23T20:12:05.815Z,98195.34
2022-08-23T20:14:35.765Z,98196.41
2022-08-23T20:17:07.509Z,98194.03
2022-08-23T20:19:36.349Z,98195.91
2022-08-23T20:22:23.710Z,98200.47
2022-08-23T20:24:53.065Z,98204.47
2022-08-23T20:27:24.169Z,98201.00
2022-08-23T20:30:01.623Z,98202.06
2022-08-23T20:32:31.440Z,98197.78
2022-08-23T20:35:01.245Z,98193.28
2022-08-23T20:37:30.938Z,98193.00
2022-08-23T20:39:59.692Z,98193.53
2022-08-23T20:42:28.477Z,98195.94
2022-08-23T20:44:57.314Z,98198.06
2022-08-23T20:47:27.221Z,98190.84
2022-08-23T20:49:55.866Z,98208.72
2022-08-23T20:52:24.758Z,98195.63
2022-08-23T20:54:53.548Z,98206.28
2022-08-23T20:57:22.799Z,98202.78
2022-08-23T20:59:52.122Z,98203.59
2022-08-23T21:02:20.779Z,98208.94
2022-08-23T21:04:52.104Z,98210.50
2022-08-23T21:07:21.469Z,98218.53
2022-08-23T21:09:51.742Z,98213.69
2022-08-23T21:12:20.339Z,98212.56
2022-08-23T21:14:49.613Z,98207.81
2022-08-23T21:17:18.094Z,98214.47
2022-08-23T21:19:47.163Z,98215.25
2022-08-23T21:22:18.717Z,98213.91
2022-08-23T21:24:47.961Z,98209.91
2022-08-23T21:27:20.297Z,98209.06
2022-08-23T21:29:48.877Z,98206.63
2022-08-23T21:32:17.422Z,98206.84
2022-08-23T21:34:45.931Z,98206.25
2022-08-23T21:37:14.527Z,98203.81
2022-08-23T21:39:44.458Z,98212.88
2022-08-23T21:42:15.656Z,98210.47
2022-08-23T21:44:45.077Z,98213.34
2022-08-23T21:47:15.406Z,98215.38
2022-08-23T21:49:44.469Z,98214.81
2022-08-23T21:52:12.962Z,98213.78
2022-08-23T21:54:43.877Z,98213.50
2022-08-23T21:57:13.225Z,98215.38
2022-08-23T21:59:41.894Z,98215.38
2022-08-23T22:02:10.910Z,98212.69
2022-08-23T22:04:39.823Z,98214.47
2022-08-23T22:07:08.926Z,98215.69
2022-08-23T22:09:37.449Z,98213.25
2022-08-23T22:12:09.193Z,98216.09
2022-08-23T22:14:37.844Z,98215.78
2022-08-23T22:17:06.962Z,98221.94
2022-08-23T22:19:35.531Z,98207.50
2022-08-23T22:22:05.449Z,98217.59
2022-08-23T22:24:33.939Z,98218.16
2022-08-23T22:27:03.014Z,98216.00
2022-08-23T22:29:33.528Z,98214.09
2022-08-23T22:32:02.806Z,98210.03
2022-08-23T22:34:31.412Z,98204.09
2022-08-23T22:36:59.913Z,98215.44
2022-08-23T22:39:29.009Z,98213.50
2022-08-23T22:41:57.600Z,98211.34
2022-08-23T22:44:28.758Z,98217.47
2022-08-23T22:46:58.801Z,98208.34
2022-08-23T22:49:27.976Z,98210.72
2022-08-23T22:51:59.522Z,98212.25
2022-08-23T22:54:27.992Z,98215.97
2022-08-23T22:57:24.889Z,98210.59
2022-08-23T22:59:53.845Z,98213.19
2022-08-23T23:02:25.109Z,98211.38
2022-08-23T23:04:57.284Z,98214.59
2022-08-23T23:07:40.149Z,98219.84
2022-08-23T23:10:10.926Z,98220.94
2022-08-23T23:12:40.158Z,98213.38
2022-08-23T23:15:10.571Z,98216.22
2022-08-23T23:17:41.603Z,98219.44
2022-08-23T23:20:28.827Z,98212.53
2022-08-23T23:22:57.697Z,98217.16
2022-08-23T23:25:26.788Z,98211.28
2022-08-23T23:27:55.260Z,98205.97
2022-08-23T23:30:28.445Z,98208.25
2022-08-23T23:32:59.250Z,98218.88
2022-08-23T23:35:29.113Z,98221.31
2022-08-23T23:37:59.158Z,98214.88
2022-08-23T23:40:28.393Z,98215.28
2022-08-23T23:42:57.771Z,98220.56
2022-08-23T23:45:26.244Z,98220.88
2022-08-23T23:47:55.721Z,98219.25
2022-08-23T23:50:26.988Z,98217.34
2022-08-23T23:52:55.945Z,98213.22
2022-08-23T23:55:25.018Z,98216.88
2022-08-23T23:57:54.102Z,98216.06
